createdAt,value
2018-09-12T00:00:14.556Z,2.95
2018-09-12T00:01:17.887Z,2.98
2018-09-12T00:02:21.230Z,3.47
2018-09-12T00:03:24.576Z,2.92
2018-09-12T00:04:27.885Z,2.77
2018-09-12T00:05:31.220Z,2.95
2018-09-12T00:06:34.597Z,3.10
2018-09-12T00:07:37.977Z,2.85
2018-09-12T00:08:41.406Z,3.08
2018-09-12T00:09:51.400Z,2.83
2018-09-12T00:10:54.759Z,2.70
2018-09-12T00:11:58.075Z,3.75
2018-09-12T00:13:01.439Z,2.50
2018-09-12T00:14:04.788Z,2.83
2018-09-12T00:15:08.115Z,3.00
2018-09-12T00:16:11.433Z,2.72
2018-09-12T00:17:14.763Z,2.92
2018-09-12T00:18:18.133Z,3.42
2018-09-12T00:19:21.477Z,3.30
2018-09-12T00:20:24.793Z,3.10
2018-09-12T00:21:28.195Z,4.10
2018-09-12T00:22:31.504Z,3.12
2018-09-12T00:23:34.832Z,3.30
2018-09-12T00:24:38.176Z,3.10
2018-09-12T00:25:41.496Z,2.80
2018-09-12T00:26:44.857Z,2.98
2018-09-12T00:27:48.180Z,3.58
2018-09-12T00:28:51.538Z,3.45
2018-09-12T00:29:54.891Z,2.95
2018-09-12T00:30:58.231Z,3.42
2018-09-12T00:32:01.576Z,3.42
2018-09-12T00:33:04.917Z,3.47
2018-09-12T00:34:08.272Z,3.30
2018-09-12T00:35:11.608Z,3.65
2018-09-12T00:36:14.983Z,3.17
2018-09-12T00:37:18.306Z,4.10
2018-09-12T00:38:21.623Z,3.70
2018-09-12T00:39:24.928Z,3.47
2018-09-12T00:40:28.239Z,3.30
2018-09-12T00:41:31.570Z,3.47
2018-09-12T00:42:34.887Z,3.85
2018-09-12T00:43:38.207Z,4.35
2018-09-12T00:44:41.526Z,3.33
2018-09-12T00:45:44.848Z,4.15
2018-09-12T00:46:48.218Z,3.25
2018-09-12T00:47:51.531Z,3.65
2018-09-12T00:48:54.852Z,3.83
2018-09-12T00:49:58.259Z,3.30
2018-09-12T00:51:01.619Z,3.75
2018-09-12T00:52:04.978Z,3.85
2018-09-12T00:53:08.292Z,3.50
2018-09-12T00:54:11.611Z,3.92
2018-09-12T00:55:14.946Z,3.60
2018-09-12T00:56:18.291Z,3.60
2018-09-12T00:57:21.590Z,3.60
2018-09-12T00:58:24.938Z,3.60
2018-09-12T00:59:28.344Z,3.58
2018-09-12T01:00:31.663Z,3.60
2018-09-12T01:01:35.007Z,3.52
2018-09-12T01:02:38.314Z,3.27
2018-09-12T01:03:41.688Z,3.75
2018-09-12T01:04:45.102Z,3.35
2018-09-12T01:05:48.357Z,3.58
2018-09-12T01:06:51.672Z,4.12
2018-09-12T01:07:55.000Z,3.22
2018-09-12T01:08:58.370Z,3.60
2018-09-12T01:10:01.680Z,3.85
2018-09-12T01:11:04.987Z,3.67
2018-09-12T01:12:14.734Z,3.85
2018-09-12T01:13:18.043Z,3.42
2018-09-12T01:14:21.529Z,3.72
2018-09-12T01:15:24.884Z,3.70
2018-09-12T01:16:28.201Z,3.35
2018-09-12T01:17:31.503Z,2.58
2018-09-12T01:18:34.831Z,3.65
2018-09-12T01:19:38.170Z,3.20
2018-09-12T01:20:41.506Z,3.10
2018-09-12T01:21:44.855Z,3.40
2018-09-12T01:22:48.147Z,3.52
2018-09-12T01:23:51.497Z,4.08
2018-09-12T01:24:54.841Z,3.55
2018-09-12T01:25:58.146Z,4.33
2018-09-12T01:27:01.469Z,4.15
2018-09-12T01:28:04.788Z,3.72
2018-09-12T01:29:08.088Z,3.60
2018-09-12T01:30:15.655Z,3.27
2018-09-12T01:31:18.994Z,3.85
2018-09-12T01:32:22.299Z,4.10
2018-09-12T01:33:25.619Z,3.72
2018-09-12T01:34:28.954Z,3.77
2018-09-12T01:35:32.271Z,4.20
2018-09-12T01:36:35.615Z,3.25
2018-09-12T01:37:38.916Z,3.65
2018-09-12T01:38:42.224Z,3.42
2018-09-12T01:39:45.533Z,3.70
2018-09-12T01:40:48.909Z,3.85
2018-09-12T01:41:52.222Z,3.52
2018-09-12T01:42:55.543Z,4.08
2018-09-12T01:43:58.900Z,3.30
2018-09-12T01:45:02.195Z,4.15
2018-09-12T01:46:05.672Z,3.30
2018-09-12T01:47:09.020Z,3.50
2018-09-12T01:48:12.335Z,4.37
2018-09-12T01:49:18.608Z,4.00
2018-09-12T01:50:21.945Z,2.67
2018-09-12T01:52:34.966Z,2.80
2018-09-12T01:53:38.276Z,3.50
2018-09-12T01:54:41.590Z,2.65
2018-09-12T01:55:44.906Z,3.27
2018-09-12T01:56:48.261Z,3.33
2018-09-12T01:57:51.569Z,2.60
2018-09-12T01:58:55.359Z,2.95
2018-09-12T01:59:58.681Z,2.85
2018-09-12T02:01:02.002Z,3.08
2018-09-12T02:02:05.382Z,2.92
2018-09-12T02:03:08.897Z,3.22
2018-09-12T02:04:12.203Z,2.70
2018-09-12T02:05:15.578Z,2.85
2018-09-12T02:06:18.851Z,3.45
2018-09-12T02:07:22.228Z,2.75
2018-09-12T02:08:32.120Z,3.00
2018-09-12T02:09:35.466Z,2.87
2018-09-12T02:10:38.782Z,2.92
2018-09-12T02:11:42.110Z,2.75
2018-09-12T02:12:45.422Z,3.47
2018-09-12T02:13:48.796Z,2.67
2018-09-12T02:14:52.112Z,2.85
2018-09-12T02:15:55.432Z,3.42
2018-09-12T02:16:58.740Z,3.25
2018-09-12T02:18:02.067Z,2.72
2018-09-12T02:19:05.508Z,3.15
2018-09-12T02:20:08.844Z,3.15
2018-09-12T02:21:12.187Z,3.42
2018-09-12T02:22:15.539Z,3.62
2018-09-12T02:23:18.840Z,3.70
2018-09-12T02:24:22.172Z,3.75
2018-09-12T02:25:25.500Z,4.03
2018-09-12T02:26:28.903Z,4.80
2018-09-12T02:27:32.239Z,3.92
2018-09-12T02:28:35.556Z,3.90
2018-09-12T02:29:38.893Z,4.35
2018-09-12T02:30:42.280Z,4.05
2018-09-12T02:31:45.592Z,4.17
2018-09-12T02:32:48.911Z,3.62
2018-09-12T02:33:52.253Z,3.20
2018-09-12T02:34:56.031Z,3.50
2018-09-12T02:36:04.667Z,4.53
2018-09-12T02:37:08.011Z,3.62
2018-09-12T02:38:11.366Z,4.40
2018-09-12T02:39:14.667Z,3.40
2018-09-12T02:40:18.044Z,3.80
2018-09-12T02:41:21.368Z,3.52
2018-09-12T02:42:24.711Z,3.15
2018-09-12T02:43:28.028Z,3.87
2018-09-12T02:44:31.365Z,3.90
2018-09-12T02:45:34.723Z,3.80
2018-09-12T02:46:38.059Z,3.40
2018-09-12T02:47:41.386Z,3.40
2018-09-12T02:48:44.782Z,3.85
2018-09-12T02:49:48.102Z,3.10
2018-09-12T02:50:51.408Z,3.47
2018-09-12T02:51:54.748Z,3.62
2018-09-12T02:52:58.119Z,3.67
2018-09-12T02:54:01.471Z,4.83
2018-09-12T02:55:04.917Z,3.95
2018-09-12T02:56:08.227Z,3.60
2018-09-12T02:57:11.537Z,3.40
2018-09-12T02:58:14.846Z,4.08
2018-09-12T02:59:18.296Z,3.47
2018-09-12T03:00:21.614Z,3.75
2018-09-12T03:01:24.911Z,3.55
2018-09-12T03:02:28.251Z,3.40
2018-09-12T03:03:31.570Z,3.42
2018-09-12T03:04:34.926Z,3.75
2018-09-12T03:05:38.237Z,4.10
2018-09-12T03:06:41.733Z,3.67
2018-09-12T03:07:45.088Z,3.92
2018-09-12T03:08:48.401Z,3.98
2018-09-12T03:09:51.794Z,3.75
2018-09-12T03:10:55.108Z,4.10
2018-09-12T03:11:58.993Z,4.20
2018-09-12T03:13:02.551Z,4.37
2018-09-12T03:14:06.571Z,4.35
2018-09-12T03:15:09.946Z,4.75
2018-09-12T03:16:13.261Z,4.72
2018-09-12T03:17:16.569Z,4.42
2018-09-12T03:18:19.872Z,4.17
2018-09-12T03:19:23.189Z,3.90
2018-09-12T03:20:26.590Z,4.10
2018-09-12T03:21:29.928Z,4.20
2018-09-12T03:22:33.232Z,4.45
2018-09-12T03:23:36.589Z,3.80
2018-09-12T03:24:39.955Z,4.22
2018-09-12T03:25:43.410Z,4.80
2018-09-12T03:26:46.716Z,4.30
2018-09-12T03:27:50.032Z,4.30
2018-09-12T03:28:53.496Z,4.67
2018-09-12T03:29:56.802Z,4.80
2018-09-12T03:31:00.162Z,4.35
2018-09-12T03:32:03.513Z,5.10
2018-09-12T03:33:06.845Z,4.70
2018-09-12T03:34:10.235Z,4.45
2018-09-12T03:35:13.536Z,4.15
2018-09-12T03:36:16.908Z,5.00
2018-09-12T03:37:20.223Z,4.55
2018-09-12T03:38:23.546Z,4.92
2018-09-12T03:39:26.857Z,4.55
2018-09-12T03:40:30.192Z,4.53
2018-09-12T03:41:33.528Z,4.65
2018-09-12T03:42:43.162Z,4.67
2018-09-12T03:43:46.507Z,3.75
2018-09-12T03:44:49.809Z,4.62
2018-09-12T03:45:53.309Z,4.65
2018-09-12T03:46:56.642Z,4.58
2018-09-12T03:48:00.046Z,4.60
2018-09-12T03:49:03.362Z,3.95
2018-09-12T03:50:06.820Z,4.47
2018-09-12T03:51:10.131Z,4.72
2018-09-12T03:52:13.435Z,4.50
2018-09-12T03:53:16.737Z,5.00
2018-09-12T03:54:20.080Z,4.80
2018-09-12T03:55:23.419Z,4.47
2018-09-12T03:56:26.707Z,4.55
2018-09-12T03:57:30.038Z,4.17
2018-09-12T03:58:33.336Z,4.25
2018-09-12T03:59:36.742Z,4.22
2018-09-12T04:00:40.062Z,4.15
2018-09-12T04:01:43.384Z,4.72
2018-09-12T04:02:46.817Z,3.67
2018-09-12T04:03:50.090Z,4.45
2018-09-12T04:04:53.439Z,4.83
2018-09-12T04:05:56.803Z,4.35
2018-09-12T04:07:00.123Z,4.25
2018-09-12T04:08:03.431Z,4.90
2018-09-12T04:09:08.799Z,4.90
2018-09-12T04:10:12.236Z,4.85
2018-09-12T04:11:15.542Z,4.30
2018-09-12T04:12:18.837Z,4.90
2018-09-12T04:13:22.253Z,4.55
2018-09-12T04:14:25.591Z,3.80
2018-09-12T04:15:28.936Z,4.05
2018-09-12T04:16:32.229Z,4.20
2018-09-12T04:17:37.801Z,3.47
2018-09-12T04:18:41.132Z,4.45
2018-09-12T04:19:44.435Z,3.80
2018-09-12T04:20:47.835Z,3.45
2018-09-12T04:21:51.184Z,3.25
2018-09-12T04:22:54.479Z,4.03
2018-09-12T04:23:57.793Z,3.25
2018-09-12T04:25:01.108Z,3.83
2018-09-12T04:26:04.499Z,3.85
2018-09-12T04:27:07.920Z,4.17
2018-09-12T04:28:11.241Z,4.03
2018-09-12T04:29:14.560Z,3.45
2018-09-12T04:30:17.871Z,3.40
2018-09-12T04:31:21.243Z,3.92
2018-09-12T04:32:25.284Z,3.50
2018-09-12T04:33:28.635Z,3.70
2018-09-12T04:34:38.662Z,2.75
2018-09-12T04:35:42.003Z,3.80
2018-09-12T04:36:45.323Z,3.70
2018-09-12T04:37:48.716Z,3.42
2018-09-12T04:38:52.047Z,3.50
2018-09-12T04:39:55.392Z,3.83
2018-09-12T04:40:58.732Z,3.90
2018-09-12T04:42:02.131Z,4.10
2018-09-12T04:43:06.019Z,4.08
2018-09-12T04:44:09.338Z,4.50
2018-09-12T04:45:12.669Z,5.15
2018-09-12T04:46:16.021Z,4.70
2018-09-12T04:47:19.344Z,4.20
2018-09-12T04:48:22.700Z,4.47
2018-09-12T04:49:25.994Z,5.17
2018-09-12T04:50:29.314Z,4.30
2018-09-12T04:51:32.667Z,4.53
2018-09-12T04:52:35.978Z,4.78
2018-09-12T04:53:39.289Z,4.10
2018-09-12T04:54:42.608Z,4.92
2018-09-12T04:55:45.914Z,4.87
2018-09-12T04:56:49.270Z,4.67
2018-09-12T04:57:52.605Z,3.92
2018-09-12T04:58:55.932Z,4.22
2018-09-12T04:59:59.236Z,4.15
2018-09-12T05:01:02.535Z,4.50
2018-09-12T05:02:05.846Z,4.53
2018-09-12T05:03:09.201Z,4.50
2018-09-12T05:04:12.560Z,4.60
2018-09-12T05:05:15.903Z,5.25
2018-09-12T05:06:19.220Z,4.30
2018-09-12T05:07:22.537Z,4.47
2018-09-12T05:08:25.909Z,4.30
2018-09-12T05:09:29.225Z,4.12
2018-09-12T05:10:32.567Z,4.30
2018-09-12T05:11:35.881Z,4.15
2018-09-12T05:12:39.186Z,4.35
2018-09-12T05:13:42.535Z,3.95
2018-09-12T05:14:45.843Z,4.40
2018-09-12T05:15:49.226Z,4.28
2018-09-12T05:16:52.539Z,4.75
2018-09-12T05:17:55.862Z,4.17
2018-09-12T05:18:59.188Z,4.70
2018-09-12T05:20:02.506Z,4.33
2018-09-12T05:21:12.318Z,4.28
2018-09-12T05:22:15.675Z,4.00
2018-09-12T05:23:18.980Z,3.90
2018-09-12T05:24:22.299Z,4.45
2018-09-12T05:25:25.628Z,4.35
2018-09-12T05:26:28.939Z,4.40
2018-09-12T05:27:32.282Z,4.30
2018-09-12T05:28:35.654Z,5.10
2018-09-12T05:29:39.111Z,4.80
2018-09-12T05:30:42.441Z,5.40
2018-09-12T05:31:45.858Z,4.15
2018-09-12T05:32:49.223Z,4.45
2018-09-12T05:33:52.587Z,4.35
2018-09-12T05:34:55.930Z,5.05
2018-09-12T05:35:59.251Z,4.75
2018-09-12T05:37:02.568Z,5.00
2018-09-12T05:38:05.971Z,5.12
2018-09-12T05:39:10.634Z,4.45
2018-09-12T05:40:13.970Z,4.22
2018-09-12T05:41:17.286Z,4.87
2018-09-12T05:42:20.624Z,5.30
2018-09-12T05:43:24.102Z,4.58
2018-09-12T05:44:27.458Z,4.67
2018-09-12T05:45:30.801Z,4.92
2018-09-12T05:46:34.567Z,5.35
2018-09-12T05:47:37.899Z,5.33
2018-09-12T05:48:41.290Z,4.87
2018-09-12T05:49:44.627Z,5.05
2018-09-12T05:50:47.984Z,5.10
2018-09-12T05:51:51.328Z,4.97
2018-09-12T05:52:54.667Z,4.85
2018-09-12T05:53:58.059Z,4.92
2018-09-12T05:55:01.385Z,5.95
2018-09-12T05:56:04.752Z,4.22
2018-09-12T05:57:08.069Z,4.40
2018-09-12T05:58:11.392Z,5.87
2018-09-12T05:59:14.759Z,4.53
2018-09-12T06:00:18.114Z,4.90
2018-09-12T06:01:21.463Z,4.70
2018-09-12T06:02:24.796Z,4.03
2018-09-12T06:03:28.261Z,5.08
2018-09-12T06:04:31.619Z,4.53
2018-09-12T06:05:35.010Z,6.37
2018-09-12T06:06:38.344Z,4.80
2018-09-12T06:07:41.672Z,4.70
2018-09-12T06:08:44.987Z,4.25
2018-09-12T06:09:48.356Z,4.47
2018-09-12T06:10:51.689Z,4.28
2018-09-12T06:11:55.014Z,4.75
2018-09-12T06:12:58.331Z,4.83
2018-09-12T06:14:01.686Z,5.30
2018-09-12T06:15:05.090Z,4.28
2018-09-12T06:16:08.479Z,4.45
2018-09-12T06:17:11.815Z,5.47
2018-09-12T06:18:15.140Z,4.28
2018-09-12T06:19:18.466Z,4.33
2018-09-12T06:20:21.839Z,3.90
2018-09-12T06:21:25.154Z,3.92
2018-09-12T06:22:35.157Z,4.05
2018-09-12T06:23:38.460Z,4.50
2018-09-12T06:24:41.798Z,3.95
2018-09-12T06:25:45.231Z,4.08
2018-09-12T06:26:48.581Z,4.80
2018-09-12T06:27:51.895Z,5.08
2018-09-12T06:28:55.250Z,3.87
2018-09-12T06:29:58.550Z,4.20
2018-09-12T06:31:01.932Z,4.25
2018-09-12T06:32:05.299Z,3.37
2018-09-12T06:33:08.616Z,3.60
2018-09-12T06:34:11.922Z,3.10
2018-09-12T06:35:15.255Z,3.90
2018-09-12T06:36:18.640Z,3.58
2018-09-12T06:37:21.946Z,3.50
2018-09-12T06:38:25.280Z,3.83
2018-09-12T06:39:28.582Z,3.30
2018-09-12T06:40:31.896Z,3.45
2018-09-12T06:41:35.241Z,3.00
2018-09-12T06:42:38.547Z,3.75
2018-09-12T06:43:41.869Z,2.95
2018-09-12T06:44:45.284Z,2.70
2018-09-12T06:45:48.571Z,3.42
2018-09-12T06:46:51.939Z,3.05
2018-09-12T06:47:55.261Z,4.00
2018-09-12T06:48:58.578Z,3.60
2018-09-12T06:50:01.890Z,2.90
2018-09-12T06:51:05.252Z,3.15
2018-09-12T06:52:08.579Z,3.50
2018-09-12T06:53:11.903Z,3.40
2018-09-12T06:54:15.209Z,3.12
2018-09-12T06:55:18.527Z,3.17
2018-09-12T06:56:21.892Z,2.83
2018-09-12T06:57:25.194Z,3.10
2018-09-12T06:58:28.565Z,3.30
2018-09-12T06:59:31.876Z,3.25
2018-09-12T07:00:35.212Z,3.05
2018-09-12T07:01:38.536Z,3.27
2018-09-12T07:02:41.850Z,3.30
2018-09-12T07:03:45.274Z,3.00
2018-09-12T07:04:48.588Z,3.17
2018-09-12T07:05:51.922Z,3.10
2018-09-12T07:06:55.239Z,3.55
2018-09-12T07:07:58.560Z,3.20
2018-09-12T07:09:01.939Z,3.45
2018-09-12T07:10:05.549Z,3.20
2018-09-12T07:11:08.892Z,3.20
2018-09-12T07:12:12.240Z,3.27
2018-09-12T07:13:15.553Z,3.10
2018-09-12T07:14:19.022Z,2.85
2018-09-12T07:15:22.258Z,3.62
2018-09-12T07:16:25.583Z,2.83
2018-09-12T07:17:28.896Z,3.00
2018-09-12T07:18:32.290Z,2.50
2018-09-12T07:19:35.650Z,4.00
2018-09-12T07:20:38.962Z,3.30
2018-09-12T07:21:42.292Z,3.35
2018-09-12T07:22:45.639Z,3.40
2018-09-12T07:23:48.993Z,3.37
2018-09-12T07:24:52.340Z,3.70
2018-09-12T07:26:02.457Z,3.25
2018-09-12T07:27:05.808Z,3.35
2018-09-12T07:28:09.122Z,3.25
2018-09-12T07:29:12.444Z,3.15
2018-09-12T07:30:15.828Z,3.20
2018-09-12T07:31:19.191Z,3.27
2018-09-12T07:32:22.556Z,3.27
2018-09-12T07:33:25.931Z,3.05
2018-09-12T07:34:36.003Z,2.98
2018-09-12T07:35:39.431Z,3.25
2018-09-12T07:36:42.763Z,3.00
2018-09-12T07:37:46.098Z,3.13
2018-09-12T07:38:49.474Z,2.85
2018-09-12T07:39:52.791Z,3.05
2018-09-12T07:40:56.176Z,2.47
2018-09-12T07:41:59.503Z,2.90
2018-09-12T07:43:02.851Z,2.80
2018-09-12T07:44:06.292Z,3.00
2018-09-12T07:45:09.641Z,3.67
2018-09-12T07:46:13.014Z,2.70
2018-09-12T07:47:16.377Z,3.00
2018-09-12T07:48:19.704Z,3.27
2018-09-12T07:49:23.036Z,2.17
2018-09-12T07:50:26.355Z,2.70
2018-09-12T07:51:29.720Z,2.60
2018-09-12T07:52:33.063Z,2.40
2018-09-12T07:53:36.378Z,3.40
2018-09-12T07:54:39.696Z,3.33
2018-09-12T07:55:43.023Z,3.00
2018-09-12T07:56:46.450Z,2.97
2018-09-12T07:57:49.791Z,2.60
2018-09-12T07:58:53.258Z,2.60
2018-09-12T07:59:56.639Z,3.10
2018-09-12T08:00:59.959Z,3.10
2018-09-12T08:02:03.392Z,2.70
2018-09-12T08:03:06.731Z,2.63
2018-09-12T08:04:10.087Z,2.70
2018-09-12T08:05:13.525Z,3.20
2018-09-12T08:06:16.799Z,2.77
2018-09-12T08:07:20.166Z,2.40
2018-09-12T08:08:23.516Z,2.60
2018-09-12T08:09:26.831Z,3.03
2018-09-12T08:10:30.179Z,2.90
2018-09-12T08:11:33.539Z,3.00
2018-09-12T08:12:36.847Z,2.60
2018-09-12T08:13:40.513Z,2.83
2018-09-12T08:14:43.860Z,2.83
2018-09-12T08:15:47.167Z,2.47
2018-09-12T08:16:50.587Z,2.60
2018-09-12T08:17:53.982Z,2.83
2018-09-12T08:18:57.366Z,2.37
2018-09-12T08:20:00.676Z,2.60
2018-09-12T08:21:04.027Z,2.80
2018-09-12T08:22:07.358Z,2.90
2018-09-12T08:23:10.668Z,2.57
2018-09-12T08:24:14.107Z,2.57
2018-09-12T08:25:17.426Z,2.50
2018-09-12T08:26:20.795Z,2.80
2018-09-12T08:27:24.091Z,2.27
2018-09-12T08:28:27.444Z,2.80
2018-09-12T08:29:30.748Z,1.93
2018-09-12T08:30:34.087Z,2.40
2018-09-12T08:31:37.398Z,2.43
2018-09-12T08:32:40.732Z,2.63
2018-09-12T08:33:44.148Z,2.93
2018-09-12T08:34:47.488Z,2.20
2018-09-12T08:35:50.860Z,3.30
2018-09-12T08:36:54.227Z,2.30
2018-09-12T08:37:57.571Z,2.53
2018-09-12T08:39:00.883Z,2.30
2018-09-12T08:40:04.200Z,2.43
2018-09-12T08:41:07.532Z,2.23
2018-09-12T08:42:11.001Z,2.80
2018-09-12T08:43:14.271Z,2.20
2018-09-12T08:44:17.603Z,2.20
2018-09-12T08:45:20.925Z,2.60
2018-09-12T08:46:24.243Z,2.37
2018-09-12T08:47:27.616Z,2.43
2018-09-12T08:48:30.919Z,2.47
2018-09-12T08:49:34.264Z,1.77
2018-09-12T08:50:37.571Z,2.10
2018-09-12T08:51:41.248Z,2.50
2018-09-12T08:52:44.619Z,2.30
2018-09-12T08:53:47.963Z,2.20
2018-09-12T08:54:51.263Z,2.40
2018-09-12T08:55:54.584Z,2.30
2018-09-12T08:56:57.904Z,2.17
2018-09-12T08:58:01.267Z,2.40
2018-09-12T08:59:04.603Z,2.20
2018-09-12T09:00:08.076Z,2.60
2018-09-12T09:01:11.427Z,2.63
2018-09-12T09:02:14.721Z,2.00
2018-09-12T09:03:18.118Z,2.33
2018-09-12T09:04:21.443Z,2.17
2018-09-12T09:05:24.811Z,2.50
2018-09-12T09:06:28.130Z,2.27
2018-09-12T09:07:31.449Z,2.00
2018-09-12T09:08:41.364Z,2.43
2018-09-12T09:09:44.672Z,2.60
2018-09-12T09:10:47.988Z,2.60
2018-09-12T09:11:51.340Z,2.10
2018-09-12T09:12:55.406Z,2.50
2018-09-12T09:13:58.774Z,2.40
2018-09-12T09:15:02.101Z,1.93
2018-09-12T09:16:05.435Z,2.00
2018-09-12T09:17:08.813Z,2.40
2018-09-12T09:18:12.132Z,2.30
2018-09-12T09:19:15.505Z,2.13
2018-09-12T09:20:18.882Z,2.10
2018-09-12T09:21:22.235Z,2.40
2018-09-12T09:22:25.570Z,2.20
2018-09-12T09:23:28.987Z,1.97
2018-09-12T09:24:32.290Z,2.40
2018-09-12T09:25:35.663Z,2.27
2018-09-12T09:26:38.999Z,2.30
2018-09-12T09:27:43.125Z,2.40
2018-09-12T09:28:46.475Z,2.10
2018-09-12T09:29:49.802Z,2.20
2018-09-12T09:30:53.183Z,2.07
2018-09-12T09:31:56.510Z,2.13
2018-09-12T09:32:59.819Z,2.30
2018-09-12T09:34:03.136Z,2.33
2018-09-12T09:35:06.985Z,2.23
2018-09-12T09:36:10.306Z,1.90
2018-09-12T09:37:13.635Z,2.17
2018-09-12T09:38:16.982Z,2.53
2018-09-12T09:39:20.335Z,2.17
2018-09-12T09:40:23.659Z,1.90
2018-09-12T09:41:27.065Z,2.03
2018-09-12T09:42:31.352Z,2.53
2018-09-12T09:43:34.682Z,2.30
2018-09-12T09:44:38.007Z,2.77
2018-09-12T09:45:41.323Z,2.50
2018-09-12T09:46:44.686Z,2.23
2018-09-12T09:47:48.166Z,2.27
2018-09-12T09:48:51.506Z,1.77
2018-09-12T09:49:56.169Z,2.40
2018-09-12T09:50:59.491Z,2.40
2018-09-12T09:52:03.672Z,2.30
2018-09-12T09:53:07.037Z,2.77
2018-09-12T09:54:10.444Z,1.90
2018-09-12T09:55:13.830Z,1.93
2018-09-12T09:56:17.149Z,2.17
2018-09-12T09:57:21.260Z,2.53
2018-09-12T09:58:24.630Z,2.50
2018-09-12T09:59:27.947Z,2.00
2018-09-12T10:00:36.723Z,2.27
2018-09-12T10:01:45.363Z,2.43
2018-09-12T10:02:53.888Z,2.40
2018-09-12T10:04:02.752Z,2.47
2018-09-12T10:05:11.556Z,2.40
2018-09-12T10:06:18.941Z,2.33
2018-09-12T10:07:27.776Z,2.73
2018-09-12T10:08:35.379Z,2.63
2018-09-12T10:09:38.774Z,2.60
2018-09-12T10:10:42.074Z,2.27
2018-09-12T10:11:45.423Z,2.43
2018-09-12T10:12:48.738Z,2.67
2018-09-12T10:13:52.568Z,2.33
2018-09-12T10:14:55.927Z,2.13
2018-09-12T10:15:59.290Z,2.73
2018-09-12T10:17:02.648Z,2.53
2018-09-12T10:18:06.007Z,3.37
2018-09-12T10:19:09.362Z,2.40
2018-09-12T10:20:12.692Z,2.97
2018-09-12T10:21:16.251Z,2.50
2018-09-12T10:22:19.588Z,1.90
2018-09-12T10:23:23.938Z,2.20
2018-09-12T10:24:27.323Z,2.00
2018-09-12T10:25:30.616Z,2.83
2018-09-12T10:26:33.934Z,2.37
2018-09-12T10:27:37.344Z,2.47
2018-09-12T10:28:40.719Z,2.00
2018-09-12T10:29:44.058Z,2.23
2018-09-12T10:30:47.538Z,2.60
2018-09-12T10:31:50.863Z,2.17
2018-09-12T10:32:54.183Z,2.47
2018-09-12T10:33:57.580Z,1.77
2018-09-12T10:35:00.900Z,1.97
2018-09-12T10:36:04.207Z,1.90
2018-09-12T10:37:07.523Z,1.97
2018-09-12T10:38:10.840Z,2.40
2018-09-12T10:39:14.480Z,2.10
2018-09-12T10:40:17.832Z,2.13
2018-09-12T10:41:21.150Z,2.37
2018-09-12T10:42:24.458Z,2.40
2018-09-12T10:43:27.772Z,2.07
2018-09-12T10:44:31.172Z,2.67
2018-09-12T10:45:34.530Z,2.13
2018-09-12T10:46:38.232Z,2.33
2018-09-12T10:47:41.559Z,2.40
2018-09-12T10:48:44.932Z,2.80
2018-09-12T10:49:48.984Z,2.23
2018-09-12T10:50:52.364Z,2.23
2018-09-12T10:51:55.731Z,2.57
2018-09-12T10:52:59.072Z,2.40
2018-09-12T10:54:02.426Z,2.40
2018-09-12T10:55:05.819Z,2.60
2018-09-12T10:56:09.211Z,2.27
2018-09-12T10:57:12.559Z,2.70
2018-09-12T10:58:15.866Z,2.70
2018-09-12T10:59:19.195Z,2.87
2018-09-12T11:00:22.561Z,2.20
2018-09-12T11:01:25.884Z,2.43
2018-09-12T11:02:29.214Z,2.00
2018-09-12T11:03:32.532Z,2.40
2018-09-12T11:04:36.114Z,2.23
2018-09-12T11:05:39.482Z,2.40
2018-09-12T11:06:42.815Z,2.70
2018-09-12T11:07:46.130Z,2.00
2018-09-12T11:08:49.556Z,2.03
2018-09-12T11:09:52.919Z,3.00
2018-09-12T11:10:56.211Z,2.50
2018-09-12T11:11:59.533Z,2.67
2018-09-12T11:13:02.902Z,2.60
2018-09-12T11:14:06.284Z,2.50
2018-09-12T11:15:09.668Z,2.43
2018-09-12T11:16:12.992Z,2.17
2018-09-12T11:17:16.286Z,2.87
2018-09-12T11:18:19.638Z,2.80
2018-09-12T11:19:22.956Z,2.67
2018-09-12T11:20:26.296Z,2.70
2018-09-12T11:21:29.646Z,2.47
2018-09-12T11:22:32.982Z,2.27
2018-09-12T11:23:36.361Z,2.20
2018-09-12T11:24:39.708Z,2.53
2018-09-12T11:25:43.024Z,2.40
2018-09-12T11:26:46.334Z,2.17
2018-09-12T11:27:49.713Z,2.77
2018-09-12T11:28:53.195Z,2.93
2018-09-12T11:29:56.515Z,2.50
2018-09-12T11:30:59.839Z,2.33
2018-09-12T11:32:03.187Z,2.70
2018-09-12T11:33:06.519Z,2.40
2018-09-12T11:34:09.855Z,2.23
2018-09-12T11:35:13.171Z,2.20
2018-09-12T11:36:16.519Z,2.03
2018-09-12T11:37:19.867Z,2.60
2018-09-12T11:38:23.203Z,2.80
2018-09-12T11:39:26.540Z,2.63
2018-09-12T11:40:29.851Z,2.70
2018-09-12T11:41:33.215Z,2.43
2018-09-12T11:42:36.514Z,2.57
2018-09-12T11:43:39.847Z,2.60
2018-09-12T11:44:43.168Z,2.50
2018-09-12T11:45:46.460Z,2.80
2018-09-12T11:46:49.813Z,2.40
2018-09-12T11:47:53.123Z,2.00
2018-09-12T11:48:56.530Z,2.63
2018-09-12T11:50:01.301Z,2.40
2018-09-12T11:51:04.678Z,2.30
2018-09-12T11:52:08.272Z,2.13
2018-09-12T11:53:11.605Z,2.47
2018-09-12T11:54:14.963Z,2.90
2018-09-12T11:55:18.268Z,2.30
2018-09-12T11:56:21.870Z,2.70
2018-09-12T11:57:25.186Z,2.57
2018-09-12T11:58:28.600Z,3.10
2018-09-12T11:59:31.912Z,2.37
2018-09-12T12:00:35.219Z,2.30
2018-09-12T12:01:38.580Z,2.50
2018-09-12T12:02:41.912Z,2.83
2018-09-12T12:03:45.278Z,2.43
2018-09-12T12:04:48.640Z,2.47
2018-09-12T12:05:51.970Z,2.57
2018-09-12T12:06:55.314Z,2.50
2018-09-12T12:07:58.642Z,2.30
2018-09-12T12:09:01.951Z,2.23
2018-09-12T12:10:05.324Z,2.40
2018-09-12T12:11:08.664Z,2.47
2018-09-12T12:12:12.023Z,2.20
2018-09-12T12:13:15.411Z,2.60
2018-09-12T12:14:18.788Z,2.30
2018-09-12T12:15:22.105Z,2.30
2018-09-12T12:16:25.447Z,2.10
2018-09-12T12:17:28.779Z,2.33
2018-09-12T12:18:32.132Z,2.40
2018-09-12T12:19:35.439Z,2.17
2018-09-12T12:20:38.804Z,2.40
2018-09-12T12:21:42.123Z,2.43
2018-09-12T12:22:45.417Z,2.50
2018-09-12T12:23:48.776Z,2.60
2018-09-12T12:24:52.114Z,2.07
2018-09-12T12:25:55.443Z,2.40
2018-09-12T12:26:58.749Z,2.50
2018-09-12T12:28:02.144Z,2.80
2018-09-12T12:29:05.523Z,2.67
2018-09-12T12:30:08.831Z,2.30
2018-09-12T12:31:12.183Z,2.30
2018-09-12T12:32:15.480Z,2.40
2018-09-12T12:33:18.852Z,2.40
2018-09-12T12:34:22.172Z,2.27
2018-09-12T12:35:25.547Z,2.00
2018-09-12T12:36:28.876Z,2.20
2018-09-12T12:37:32.240Z,2.70
2018-09-12T12:38:35.554Z,2.43
2018-09-12T12:39:38.955Z,2.10
2018-09-12T12:40:42.266Z,2.50
2018-09-12T12:41:45.583Z,2.60
2018-09-12T12:42:48.910Z,2.53
2018-09-12T12:43:52.208Z,2.37
2018-09-12T12:44:55.576Z,2.10
2018-09-12T12:45:58.907Z,2.07
2018-09-12T12:47:02.202Z,2.27
2018-09-12T12:48:05.535Z,2.47
2018-09-12T12:49:08.977Z,2.30
2018-09-12T12:50:12.307Z,2.17
2018-09-12T12:51:15.606Z,2.27
2018-09-12T12:52:18.959Z,2.27
2018-09-12T12:53:22.342Z,2.00
2018-09-12T12:54:25.689Z,2.03
2018-09-12T12:55:29.031Z,2.43
2018-09-12T12:56:32.324Z,5.57
2018-09-12T12:57:35.636Z,4.47
2018-09-12T12:58:38.990Z,4.80
2018-09-12T12:59:42.342Z,4.17
2018-09-12T13:00:45.687Z,4.67
2018-09-12T13:01:49.047Z,5.10
2018-09-12T13:02:52.357Z,4.27
2018-09-12T13:03:55.707Z,3.23
2018-09-12T13:04:59.023Z,5.30
2018-09-12T13:06:02.393Z,3.97
2018-09-12T13:07:05.699Z,3.00
2018-09-12T13:08:09.033Z,5.20
2018-09-12T13:09:12.387Z,5.00
2018-09-12T13:10:15.675Z,3.10
2018-09-12T13:11:18.975Z,2.87
2018-09-12T13:12:22.291Z,2.60
2018-09-12T13:13:25.623Z,2.40
2018-09-12T13:14:29.016Z,2.50
2018-09-12T13:15:32.311Z,2.07
2018-09-12T13:16:35.696Z,2.27
2018-09-12T13:17:45.347Z,2.53
2018-09-12T13:18:48.667Z,2.43
2018-09-12T13:19:51.967Z,1.83
2018-09-12T13:20:55.268Z,2.60
2018-09-12T13:21:58.610Z,1.70
2018-09-12T13:23:01.921Z,2.00
2018-09-12T13:24:05.266Z,1.97
2018-09-12T13:25:08.592Z,1.97
2018-09-12T13:26:11.943Z,2.07
2018-09-12T13:27:15.409Z,2.70
2018-09-12T13:28:18.692Z,2.13
2018-09-12T13:29:22.024Z,2.27
2018-09-12T13:30:25.335Z,2.00
2018-09-12T13:31:28.714Z,1.83
2018-09-12T13:32:32.060Z,2.20
2018-09-12T13:33:35.351Z,2.13
2018-09-12T13:34:38.755Z,2.20
2018-09-12T13:35:42.007Z,2.27
2018-09-12T13:36:45.302Z,2.10
2018-09-12T13:37:48.672Z,2.00
2018-09-12T13:38:52.001Z,1.70
2018-09-12T13:39:55.306Z,2.00
2018-09-12T13:40:58.627Z,2.20
2018-09-12T13:42:01.940Z,1.97
2018-09-12T13:43:05.313Z,2.20
2018-09-12T13:44:08.628Z,2.80
2018-09-12T13:45:11.959Z,2.20
2018-09-12T13:46:21.894Z,1.87
2018-09-12T13:47:25.187Z,2.47
2018-09-12T13:48:28.540Z,2.00
2018-09-12T13:49:31.834Z,2.30
2018-09-12T13:50:35.167Z,2.00
2018-09-12T13:51:38.480Z,1.63
2018-09-12T13:52:41.783Z,2.50
2018-09-12T13:53:45.083Z,2.30
2018-09-12T13:54:48.394Z,2.23
2018-09-12T13:55:51.900Z,2.33
2018-09-12T13:56:55.212Z,2.50
2018-09-12T13:57:58.519Z,1.80
2018-09-12T13:59:02.160Z,2.07
2018-09-12T14:00:05.992Z,2.10
2018-09-12T14:01:09.305Z,2.10
2018-09-12T14:02:12.603Z,1.77
2018-09-12T14:03:16.058Z,2.20
2018-09-12T14:04:19.339Z,2.30
2018-09-12T14:05:22.683Z,2.00
2018-09-12T14:06:25.993Z,1.80